This is the latest recevied weather packets stored in our database for station/object PA3DZX-13. If no packets are shown the sender has not sent any weather packets the latest 10 day(s).
| Time | Temp. | Humidity | Pressure | Rain* | Wind** | Luminosity | Snow |
|---|---|---|---|---|---|---|---|
| 1777616509 | 10.56° C | 56% | 1027.9 hPa | 0 mm | - | - | - |
| 1777615610 | 10° C | 59% | 1027.9 hPa | 0 mm | - | - | - |
| 1777614709 | 10° C | 60% | 1027.9 hPa | 0 mm | - | - | - |
| 1777613809 | 8.89° C | 60% | 1027.8 hPa | 0 mm | - | - | - |
| 1777612908 | 8.89° C | 61% | 1027.8 hPa | 0 mm | - | - | - |
| 1777612008 | 7.78° C | 64% | 1027.7 hPa | 0 mm | - | - | - |
| 1777611107 | 7.78° C | 64% | 1027.7 hPa | 0 mm | - | - | - |
| 1777610207 | 7.78° C | 63% | 1027.6 hPa | 0 mm | - | - | - |
| 1777609307 | 7.78° C | 63% | 1027.6 hPa | 0 mm | - | - | - |
| 1777608407 | 7.78° C | 61% | 1027.5 hPa | 0 mm | - | - | - |
| 1777607506 | 7.78° C | 62% | 1027.4 hPa | 0 mm | - | - | - |
| 1777606606 | 7.78° C | 61% | 1027.5 hPa | 0 mm | - | - | - |
| 1777605706 | 7.78° C | 61% | 1027.6 hPa | 0 mm | - | - | - |
| 1777604805 | 7.78° C | 61% | 1027.6 hPa | 0 mm | - | - | - |
| 1777603904 | 7.78° C | 63% | 1027.6 hPa | 0 mm | - | - | - |
| 1777603003 | 8.89° C | 60% | 1027.6 hPa | 0 mm | - | - | - |
| 1777602103 | 8.89° C | 60% | 1027.6 hPa | 0 mm | - | - | - |
| 1777601203 | 8.89° C | 60% | 1027.5 hPa | 0 mm | - | - | - |
| 1777600303 | 8.89° C | 60% | 1027.6 hPa | 0 mm | - | - | - |
| 1777599403 | 8.89° C | 59% | 1027.7 hPa | 0 mm | - | - | - |
| 1777598503 | 8.89° C | 58% | 1027.6 hPa | 0 mm | - | - | - |
| 1777597602 | 8.89° C | 58% | 1027.6 hPa | 0 mm | - | - | - |
| 1777596702 | 10° C | 56% | 1027.6 hPa | 0 mm | - | - | - |
| 1777595802 | 10° C | 54% | 1027.7 hPa | 0 mm | - | - | - |
| 1777594902 | 10.56° C | 54% | 1027.7 hPa | 0 mm | - | - | - |
* Rain latest hour (hover to see other rain measurements)
** Current wind speed in m/s (hover to see current wind gust speed)